sensor_id;sensor_type;location;lat;lon;timestamp;P1;durP1;ratioP1;P2;durP2;ratioP2
28766;SDS011;15921;52.034;20.650;2023-04-25T00:00:52;19.23;;;14.02;;
28766;SDS011;15921;52.034;20.650;2023-04-25T00:03:18;21.48;;;14.70;;
28766;SDS011;15921;52.034;20.650;2023-04-25T00:05:44;22.08;;;14.52;;
28766;SDS011;15921;52.034;20.650;2023-04-25T00:08:10;20.50;;;13.30;;
28766;SDS011;15921;52.034;20.650;2023-04-25T00:10:36;21.95;;;15.23;;
28766;SDS011;15921;52.034;20.650;2023-04-25T00:13:02;24.35;;;15.38;;
28766;SDS011;15921;52.034;20.650;2023-04-25T00:15:27;22.02;;;13.48;;
28766;SDS011;15921;52.034;20.650;2023-04-25T00:17:55;24.67;;;14.75;;
28766;SDS011;15921;52.034;20.650;2023-04-25T00:20:22;24.45;;;14.20;;
28766;SDS011;15921;52.034;20.650;2023-04-25T00:22:48;20.10;;;13.30;;
28766;SDS011;15921;52.034;20.650;2023-04-25T00:25:14;25.20;;;13.77;;
28766;SDS011;15921;52.034;20.650;2023-04-25T00:27:40;21.30;;;14.07;;
28766;SDS011;15921;52.034;20.650;2023-04-25T00:30:07;20.30;;;14.07;;
28766;SDS011;15921;52.034;20.650;2023-04-25T00:32:33;22.00;;;14.15;;
28766;SDS011;15921;52.034;20.650;2023-04-25T00:34:59;21.83;;;13.23;;
28766;SDS011;15921;52.034;20.650;2023-04-25T00:37:24;21.65;;;14.30;;
28766;SDS011;15921;52.034;20.650;2023-04-25T00:39:50;21.02;;;14.23;;
28766;SDS011;15921;52.034;20.650;2023-04-25T00:42:18;20.67;;;14.15;;
28766;SDS011;15921;52.034;20.650;2023-04-25T00:44:44;20.15;;;12.25;;
28766;SDS011;15921;52.034;20.650;2023-04-25T00:47:10;20.25;;;13.88;;
28766;SDS011;15921;52.034;20.650;2023-04-25T00:49:37;18.20;;;13.98;;
28766;SDS011;15921;52.034;20.650;2023-04-25T00:52:02;21.02;;;14.07;;
28766;SDS011;15921;52.034;20.650;2023-04-25T00:54:28;19.60;;;12.63;;
28766;SDS011;15921;52.034;20.650;2023-04-25T00:56:55;20.23;;;13.27;;
28766;SDS011;15921;52.034;20.650;2023-04-25T00:59:21;20.05;;;12.98;;
28766;SDS011;15921;52.034;20.650;2023-04-25T01:01:47;19.77;;;13.00;;
28766;SDS011;15921;52.034;20.650;2023-04-25T01:04:13;16.98;;;11.68;;
28766;SDS011;15921;52.034;20.650;2023-04-25T01:06:39;18.48;;;12.70;;
28766;SDS011;15921;52.034;20.650;2023-04-25T01:09:05;24.10;;;13.13;;
28766;SDS011;15921;52.034;20.650;2023-04-25T01:11:32;14.95;;;10.55;;
28766;SDS011;15921;52.034;20.650;2023-04-25T01:13:57;18.70;;;11.52;;
28766;SDS011;15921;52.034;20.650;2023-04-25T01:16:23;18.70;;;11.63;;
28766;SDS011;15921;52.034;20.650;2023-04-25T01:18:49;18.13;;;11.25;;
28766;SDS011;15921;52.034;20.650;2023-04-25T01:21:16;15.48;;;10.95;;
28766;SDS011;15921;52.034;20.650;2023-04-25T01:23:42;22.10;;;11.02;;
28766;SDS011;15921;52.034;20.650;2023-04-25T01:26:08;15.15;;;9.75;;
28766;SDS011;15921;52.034;20.650;2023-04-25T01:28:35;16.48;;;9.82;;
28766;SDS011;15921;52.034;20.650;2023-04-25T01:31:02;15.57;;;10.57;;
28766;SDS011;15921;52.034;20.650;2023-04-25T01:33:28;17.63;;;8.77;;
28766;SDS011;15921;52.034;20.650;2023-04-25T01:35:54;15.75;;;9.50;;
28766;SDS011;15921;52.034;20.650;2023-04-25T01:38:20;14.40;;;9.93;;
28766;SDS011;15921;52.034;20.650;2023-04-25T01:40:46;12.73;;;8.88;;
28766;SDS011;15921;52.034;20.650;2023-04-25T01:43:14;14.20;;;9.23;;
28766;SDS011;15921;52.034;20.650;2023-04-25T01:45:43;13.98;;;8.95;;
28766;SDS011;15921;52.034;20.650;2023-04-25T01:48:09;13.57;;;8.55;;
28766;SDS011;15921;52.034;20.650;2023-04-25T01:50:38;12.85;;;7.90;;
28766;SDS011;15921;52.034;20.650;2023-04-25T01:53:05;12.05;;;8.05;;
28766;SDS011;15921;52.034;20.650;2023-04-25T01:55:31;12.93;;;8.25;;
28766;SDS011;15921;52.034;20.650;2023-04-25T01:57:56;12.00;;;8.25;;
28766;SDS011;15921;52.034;20.650;2023-04-25T02:00:23;12.50;;;7.82;;
28766;SDS011;15921;52.034;20.650;2023-04-25T02:02:49;13.10;;;8.15;;
28766;SDS011;15921;52.034;20.650;2023-04-25T02:05:16;12.02;;;8.40;;
28766;SDS011;15921;52.034;20.650;2023-04-25T02:07:42;12.27;;;7.25;;
28766;SDS011;15921;52.034;20.650;2023-04-25T02:10:08;11.40;;;8.00;;
28766;SDS011;15921;52.034;20.650;2023-04-25T02:12:35;13.88;;;7.78;;
28766;SDS011;15921;52.034;20.650;2023-04-25T02:15:01;13.60;;;7.25;;
28766;SDS011;15921;52.034;20.650;2023-04-25T02:17:26;12.57;;;7.60;;
28766;SDS011;15921;52.034;20.650;2023-04-25T02:19:52;11.45;;;7.55;;
28766;SDS011;15921;52.034;20.650;2023-04-25T02:22:18;16.45;;;7.93;;
28766;SDS011;15921;52.034;20.650;2023-04-25T02:24:44;10.05;;;6.28;;
28766;SDS011;15921;52.034;20.650;2023-04-25T02:27:09;11.63;;;7.47;;
28766;SDS011;15921;52.034;20.650;2023-04-25T02:29:35;12.73;;;7.93;;
28766;SDS011;15921;52.034;20.650;2023-04-25T02:32:01;13.45;;;7.28;;
28766;SDS011;15921;52.034;20.650;2023-04-25T02:34:27;12.05;;;6.88;;
28766;SDS011;15921;52.034;20.650;2023-04-25T02:36:52;8.82;;;6.40;;
28766;SDS011;15921;52.034;20.650;2023-04-25T02:39:18;9.52;;;6.57;;
28766;SDS011;15921;52.034;20.650;2023-04-25T02:41:44;9.55;;;6.35;;
28766;SDS011;15921;52.034;20.650;2023-04-25T02:44:10;11.27;;;6.90;;
28766;SDS011;15921;52.034;20.650;2023-04-25T02:46:35;12.35;;;6.45;;
28766;SDS011;15921;52.034;20.650;2023-04-25T02:49:01;10.18;;;6.63;;
28766;SDS011;15921;52.034;20.650;2023-04-25T02:51:26;10.43;;;6.78;;
28766;SDS011;15921;52.034;20.650;2023-04-25T02:53:52;11.23;;;6.93;;
28766;SDS011;15921;52.034;20.650;2023-04-25T02:56:18;13.00;;;7.03;;
28766;SDS011;15921;52.034;20.650;2023-04-25T02:58:43;10.38;;;6.78;;
28766;SDS011;15921;52.034;20.650;2023-04-25T03:01:10;12.32;;;6.88;;
28766;SDS011;15921;52.034;20.650;2023-04-25T03:03:35;11.35;;;6.95;;
28766;SDS011;15921;52.034;20.650;2023-04-25T03:06:01;9.45;;;6.10;;
28766;SDS011;15921;52.034;20.650;2023-04-25T03:08:27;12.68;;;6.70;;
28766;SDS011;15921;52.034;20.650;2023-04-25T03:10:57;13.35;;;7.35;;
28766;SDS011;15921;52.034;20.650;2023-04-25T03:13:23;9.15;;;6.18;;
28766;SDS011;15921;52.034;20.650;2023-04-25T03:15:49;10.30;;;7.05;;
28766;SDS011;15921;52.034;20.650;2023-04-25T03:18:15;9.95;;;6.82;;
28766;SDS011;15921;52.034;20.650;2023-04-25T03:20:41;9.70;;;7.25;;
28766;SDS011;15921;52.034;20.650;2023-04-25T03:23:07;12.48;;;7.18;;
28766;SDS011;15921;52.034;20.650;2023-04-25T03:25:32;11.43;;;7.63;;
28766;SDS011;15921;52.034;20.650;2023-04-25T03:27:58;12.02;;;7.40;;
28766;SDS011;15921;52.034;20.650;2023-04-25T03:30:24;11.68;;;7.15;;
28766;SDS011;15921;52.034;20.650;2023-04-25T03:32:49;13.15;;;7.32;;
28766;SDS011;15921;52.034;20.650;2023-04-25T03:35:15;10.30;;;6.97;;
28766;SDS011;15921;52.034;20.650;2023-04-25T03:37:41;10.50;;;7.00;;
28766;SDS011;15921;52.034;20.650;2023-04-25T03:40:10;12.32;;;7.60;;
28766;SDS011;15921;52.034;20.650;2023-04-25T03:42:36;14.95;;;8.02;;
28766;SDS011;15921;52.034;20.650;2023-04-25T03:45:02;12.73;;;7.95;;
28766;SDS011;15921;52.034;20.650;2023-04-25T03:47:27;12.15;;;7.85;;
28766;SDS011;15921;52.034;20.650;2023-04-25T03:49:53;13.45;;;7.93;;
28766;SDS011;15921;52.034;20.650;2023-04-25T03:52:19;13.20;;;7.93;;
28766;SDS011;15921;52.034;20.650;2023-04-25T03:54:45;12.27;;;8.27;;
28766;SDS011;15921;52.034;20.650;2023-04-25T03:57:11;14.23;;;8.55;;
28766;SDS011;15921;52.034;20.650;2023-04-25T03:59:36;15.05;;;9.15;;
28766;SDS011;15921;52.034;20.650;2023-04-25T04:02:02;14.93;;;9.10;;
28766;SDS011;15921;52.034;20.650;2023-04-25T04:04:28;13.52;;;9.40;;
28766;SDS011;15921;52.034;20.650;2023-04-25T04:06:55;13.52;;;9.13;;
28766;SDS011;15921;52.034;20.650;2023-04-25T04:09:20;16.95;;;10.20;;
28766;SDS011;15921;52.034;20.650;2023-04-25T04:11:46;15.23;;;10.75;;
28766;SDS011;15921;52.034;20.650;2023-04-25T04:14:12;14.77;;;9.43;;
28766;SDS011;15921;52.034;20.650;2023-04-25T04:16:37;17.98;;;10.68;;
28766;SDS011;15921;52.034;20.650;2023-04-25T04:19:06;17.45;;;10.95;;
28766;SDS011;15921;52.034;20.650;2023-04-25T04:21:32;16.95;;;10.98;;
28766;SDS011;15921;52.034;20.650;2023-04-25T04:23:58;20.23;;;12.55;;
28766;SDS011;15921;52.034;20.650;2023-04-25T04:26:25;21.77;;;13.82;;
28766;SDS011;15921;52.034;20.650;2023-04-25T04:28:51;21.67;;;13.05;;
28766;SDS011;15921;52.034;20.650;2023-04-25T04:31:19;32.13;;;14.05;;
28766;SDS011;15921;52.034;20.650;2023-04-25T04:33:45;20.35;;;13.15;;
28766;SDS011;15921;52.034;20.650;2023-04-25T04:36:11;20.38;;;13.32;;
28766;SDS011;15921;52.034;20.650;2023-04-25T04:38:38;25.25;;;16.63;;
28766;SDS011;15921;52.034;20.650;2023-04-25T04:41:03;28.05;;;14.38;;
28766;SDS011;15921;52.034;20.650;2023-04-25T04:43:29;25.33;;;13.68;;
28766;SDS011;15921;52.034;20.650;2023-04-25T04:45:55;20.45;;;13.10;;
28766;SDS011;15921;52.034;20.650;2023-04-25T04:48:24;18.27;;;13.07;;
28766;SDS011;15921;52.034;20.650;2023-04-25T04:50:50;18.85;;;13.27;;
28766;SDS011;15921;52.034;20.650;2023-04-25T04:53:16;19.40;;;13.25;;
28766;SDS011;15921;52.034;20.650;2023-04-25T04:55:41;21.50;;;13.20;;
28766;SDS011;15921;52.034;20.650;2023-04-25T04:58:08;23.30;;;13.65;;
28766;SDS011;15921;52.034;20.650;2023-04-25T05:00:34;21.52;;;13.43;;
28766;SDS011;15921;52.034;20.650;2023-04-25T05:02:59;21.13;;;14.18;;
28766;SDS011;15921;52.034;20.650;2023-04-25T05:05:25;20.15;;;14.02;;
28766;SDS011;15921;52.034;20.650;2023-04-25T05:07:51;22.15;;;13.85;;
28766;SDS011;15921;52.034;20.650;2023-04-25T05:10:17;22.02;;;14.57;;
28766;SDS011;15921;52.034;20.650;2023-04-25T05:12:44;21.83;;;13.35;;
28766;SDS011;15921;52.034;20.650;2023-04-25T05:15:10;21.42;;;13.98;;
28766;SDS011;15921;52.034;20.650;2023-04-25T05:17:36;24.40;;;13.93;;
28766;SDS011;15921;52.034;20.650;2023-04-25T05:20:01;20.83;;;13.10;;
28766;SDS011;15921;52.034;20.650;2023-04-25T05:22:28;25.15;;;13.95;;
28766;SDS011;15921;52.034;20.650;2023-04-25T05:24:53;20.33;;;14.38;;
28766;SDS011;15921;52.034;20.650;2023-04-25T05:27:19;20.60;;;14.35;;
28766;SDS011;15921;52.034;20.650;2023-04-25T05:29:45;19.75;;;13.68;;
28766;SDS011;15921;52.034;20.650;2023-04-25T05:32:11;19.08;;;12.88;;
28766;SDS011;15921;52.034;20.650;2023-04-25T05:34:36;18.63;;;12.88;;
28766;SDS011;15921;52.034;20.650;2023-04-25T05:37:02;17.42;;;13.13;;
28766;SDS011;15921;52.034;20.650;2023-04-25T05:39:28;19.27;;;13.68;;
28766;SDS011;15921;52.034;20.650;2023-04-25T05:41:54;20.90;;;12.95;;
28766;SDS011;15921;52.034;20.650;2023-04-25T05:44:19;19.08;;;13.68;;
28766;SDS011;15921;52.034;20.650;2023-04-25T05:46:45;30.20;;;14.68;;
28766;SDS011;15921;52.034;20.650;2023-04-25T05:49:11;20.02;;;13.85;;
28766;SDS011;15921;52.034;20.650;2023-04-25T05:51:36;23.48;;;14.10;;
28766;SDS011;15921;52.034;20.650;2023-04-25T05:54:02;20.55;;;14.32;;
28766;SDS011;15921;52.034;20.650;2023-04-25T05:56:28;21.73;;;13.80;;
28766;SDS011;15921;52.034;20.650;2023-04-25T05:58:53;21.38;;;13.82;;
28766;SDS011;15921;52.034;20.650;2023-04-25T06:01:21;23.33;;;14.68;;
28766;SDS011;15921;52.034;20.650;2023-04-25T06:03:48;23.65;;;15.50;;
28766;SDS011;15921;52.034;20.650;2023-04-25T06:06:13;22.38;;;14.38;;
28766;SDS011;15921;52.034;20.650;2023-04-25T06:08:39;19.98;;;13.57;;
28766;SDS011;15921;52.034;20.650;2023-04-25T06:11:06;21.40;;;13.02;;
28766;SDS011;15921;52.034;20.650;2023-04-25T06:13:31;22.85;;;14.25;;
28766;SDS011;15921;52.034;20.650;2023-04-25T06:15:57;21.13;;;13.63;;
28766;SDS011;15921;52.034;20.650;2023-04-25T06:18:23;23.13;;;13.95;;
28766;SDS011;15921;52.034;20.650;2023-04-25T06:20:49;18.08;;;13.85;;
28766;SDS011;15921;52.034;20.650;2023-04-25T06:23:15;18.77;;;13.50;;
28766;SDS011;15921;52.034;20.650;2023-04-25T06:25:40;18.05;;;12.65;;
28766;SDS011;15921;52.034;20.650;2023-04-25T06:28:06;16.23;;;11.75;;
28766;SDS011;15921;52.034;20.650;2023-04-25T06:30:32;17.55;;;12.15;;
28766;SDS011;15921;52.034;20.650;2023-04-25T06:32:57;24.30;;;12.32;;
28766;SDS011;15921;52.034;20.650;2023-04-25T06:35:23;13.57;;;10.57;;
28766;SDS011;15921;52.034;20.650;2023-04-25T06:37:49;13.70;;;10.70;;
28766;SDS011;15921;52.034;20.650;2023-04-25T06:40:15;17.77;;;12.15;;
28766;SDS011;15921;52.034;20.650;2023-04-25T06:42:42;14.05;;;10.38;;
28766;SDS011;15921;52.034;20.650;2023-04-25T06:45:08;15.80;;;9.50;;
28766;SDS011;15921;52.034;20.650;2023-04-25T06:47:34;15.70;;;9.95;;
28766;SDS011;15921;52.034;20.650;2023-04-25T06:49:59;12.50;;;9.32;;
28766;SDS011;15921;52.034;20.650;2023-04-25T06:52:25;11.90;;;9.40;;
28766;SDS011;15921;52.034;20.650;2023-04-25T06:54:51;16.83;;;10.23;;
28766;SDS011;15921;52.034;20.650;2023-04-25T06:57:16;12.48;;;8.68;;
28766;SDS011;15921;52.034;20.650;2023-04-25T06:59:42;10.65;;;7.35;;
28766;SDS011;15921;52.034;20.650;2023-04-25T07:02:08;11.10;;;7.53;;
28766;SDS011;15921;52.034;20.650;2023-04-25T07:04:33;10.60;;;7.70;;
28766;SDS011;15921;52.034;20.650;2023-04-25T07:06:59;10.73;;;6.57;;
28766;SDS011;15921;52.034;20.650;2023-04-25T07:09:27;10.35;;;6.50;;
28766;SDS011;15921;52.034;20.650;2023-04-25T07:11:53;10.18;;;6.45;;
28766;SDS011;15921;52.034;20.650;2023-04-25T07:14:19;11.57;;;5.93;;
28766;SDS011;15921;52.034;20.650;2023-04-25T07:16:45;8.05;;;6.35;;
28766;SDS011;15921;52.034;20.650;2023-04-25T07:19:11;8.90;;;6.43;;
28766;SDS011;15921;52.034;20.650;2023-04-25T07:21:36;13.02;;;7.82;;
28766;SDS011;15921;52.034;20.650;2023-04-25T07:24:02;8.45;;;6.15;;
28766;SDS011;15921;52.034;20.650;2023-04-25T07:26:28;10.88;;;7.40;;
28766;SDS011;15921;52.034;20.650;2023-04-25T07:28:54;8.63;;;6.38;;
28766;SDS011;15921;52.034;20.650;2023-04-25T07:31:19;8.50;;;5.45;;
28766;SDS011;15921;52.034;20.650;2023-04-25T07:33:46;7.70;;;5.72;;
28766;SDS011;15921;52.034;20.650;2023-04-25T07:36:12;8.45;;;6.15;;
28766;SDS011;15921;52.034;20.650;2023-04-25T07:38:38;9.05;;;6.20;;
28766;SDS011;15921;52.034;20.650;2023-04-25T07:41:04;8.05;;;6.60;;
28766;SDS011;15921;52.034;20.650;2023-04-25T07:43:30;8.70;;;6.05;;
28766;SDS011;15921;52.034;20.650;2023-04-25T07:45:56;10.88;;;5.57;;
28766;SDS011;15921;52.034;20.650;2023-04-25T07:48:22;7.97;;;5.85;;
28766;SDS011;15921;52.034;20.650;2023-04-25T07:50:48;6.72;;;5.35;;
28766;SDS011;15921;52.034;20.650;2023-04-25T07:53:14;8.88;;;5.93;;
28766;SDS011;15921;52.034;20.650;2023-04-25T07:55:40;7.50;;;5.30;;
28766;SDS011;15921;52.034;20.650;2023-04-25T07:58:06;11.00;;;6.15;;
28766;SDS011;15921;52.034;20.650;2023-04-25T08:00:33;8.98;;;5.95;;
28766;SDS011;15921;52.034;20.650;2023-04-25T08:02:58;9.35;;;5.90;;
28766;SDS011;15921;52.034;20.650;2023-04-25T08:05:24;7.68;;;6.00;;
28766;SDS011;15921;52.034;20.650;2023-04-25T08:07:50;10.02;;;7.00;;
28766;SDS011;15921;52.034;20.650;2023-04-25T08:10:15;13.35;;;7.85;;
28766;SDS011;15921;52.034;20.650;2023-04-25T08:12:41;9.73;;;6.10;;
28766;SDS011;15921;52.034;20.650;2023-04-25T08:15:07;9.65;;;6.60;;
28766;SDS011;15921;52.034;20.650;2023-04-25T08:17:33;11.02;;;6.97;;
28766;SDS011;15921;52.034;20.650;2023-04-25T08:19:59;10.73;;;7.97;;
28766;SDS011;15921;52.034;20.650;2023-04-25T08:22:25;10.32;;;7.70;;
28766;SDS011;15921;52.034;20.650;2023-04-25T08:24:50;11.68;;;7.20;;
28766;SDS011;15921;52.034;20.650;2023-04-25T08:27:17;8.98;;;6.65;;
28766;SDS011;15921;52.034;20.650;2023-04-25T08:29:43;10.60;;;6.70;;
28766;SDS011;15921;52.034;20.650;2023-04-25T08:32:09;8.48;;;6.93;;
28766;SDS011;15921;52.034;20.650;2023-04-25T08:34:35;21.50;;;7.70;;
28766;SDS011;15921;52.034;20.650;2023-04-25T08:37:01;9.80;;;7.10;;
28766;SDS011;15921;52.034;20.650;2023-04-25T08:39:29;13.20;;;7.13;;
28766;SDS011;15921;52.034;20.650;2023-04-25T08:41:55;9.73;;;6.90;;
28766;SDS011;15921;52.034;20.650;2023-04-25T08:44:22;10.50;;;6.80;;
28766;SDS011;15921;52.034;20.650;2023-04-25T08:46:48;8.80;;;7.40;;
28766;SDS011;15921;52.034;20.650;2023-04-25T08:49:15;10.40;;;6.57;;
28766;SDS011;15921;52.034;20.650;2023-04-25T08:51:46;11.02;;;7.47;;
28766;SDS011;15921;52.034;20.650;2023-04-25T08:54:15;11.65;;;7.93;;
28766;SDS011;15921;52.034;20.650;2023-04-25T08:56:44;10.20;;;7.05;;
28766;SDS011;15921;52.034;20.650;2023-04-25T08:59:12;8.93;;;6.47;;
28766;SDS011;15921;52.034;20.650;2023-04-25T09:01:38;12.20;;;6.78;;
28766;SDS011;15921;52.034;20.650;2023-04-25T09:04:04;11.73;;;7.70;;
28766;SDS011;15921;52.034;20.650;2023-04-25T09:06:30;12.82;;;8.25;;
28766;SDS011;15921;52.034;20.650;2023-04-25T09:09:06;10.27;;;8.13;;
28766;SDS011;15921;52.034;20.650;2023-04-25T09:11:34;9.35;;;7.53;;
28766;SDS011;15921;52.034;20.650;2023-04-25T09:14:17;10.98;;;8.35;;
28766;SDS011;15921;52.034;20.650;2023-04-25T09:19:23;9.60;;;7.35;;
28766;SDS011;15921;52.034;20.650;2023-04-25T09:21:51;9.35;;;7.63;;
28766;SDS011;15921;52.034;20.650;2023-04-25T09:24:42;10.63;;;8.35;;
28766;SDS011;15921;52.034;20.650;2023-04-25T09:27:08;11.07;;;8.02;;
28766;SDS011;15921;52.034;20.650;2023-04-25T09:29:36;12.73;;;8.25;;
28766;SDS011;15921;52.034;20.650;2023-04-25T09:32:22;10.65;;;8.18;;
28766;SDS011;15921;52.034;20.650;2023-04-25T09:34:53;9.90;;;8.00;;
28766;SDS011;15921;52.034;20.650;2023-04-25T09:39:49;10.10;;;7.60;;
28766;SDS011;15921;52.034;20.650;2023-04-25T09:42:23;14.60;;;8.43;;
28766;SDS011;15921;52.034;20.650;2023-04-25T09:44:51;11.30;;;8.18;;
28766;SDS011;15921;52.034;20.650;2023-04-25T09:47:22;11.68;;;7.80;;
28766;SDS011;15921;52.034;20.650;2023-04-25T09:49:50;10.80;;;8.18;;
28766;SDS011;15921;52.034;20.650;2023-04-25T09:52:17;9.65;;;7.55;;
28766;SDS011;15921;52.034;20.650;2023-04-25T09:54:44;10.30;;;8.00;;
28766;SDS011;15921;52.034;20.650;2023-04-25T09:57:16;10.93;;;7.97;;
28766;SDS011;15921;52.034;20.650;2023-04-25T09:59:47;11.00;;;7.15;;
28766;SDS011;15921;52.034;20.650;2023-04-25T10:02:18;9.07;;;7.32;;
28766;SDS011;15921;52.034;20.650;2023-04-25T10:04:47;9.13;;;6.70;;
28766;SDS011;15921;52.034;20.650;2023-04-25T10:07:16;10.02;;;7.53;;
28766;SDS011;15921;52.034;20.650;2023-04-25T10:09:43;8.55;;;6.88;;
28766;SDS011;15921;52.034;20.650;2023-04-25T10:12:12;7.32;;;6.25;;
28766;SDS011;15921;52.034;20.650;2023-04-25T10:14:37;8.65;;;6.28;;
28766;SDS011;15921;52.034;20.650;2023-04-25T10:17:05;10.13;;;6.57;;
28766;SDS011;15921;52.034;20.650;2023-04-25T10:19:32;7.63;;;5.70;;
28766;SDS011;15921;52.034;20.650;2023-04-25T10:24:29;8.23;;;5.25;;
28766;SDS011;15921;52.034;20.650;2023-04-25T10:26:55;8.10;;;4.90;;
28766;SDS011;15921;52.034;20.650;2023-04-25T10:29:22;6.32;;;5.05;;
28766;SDS011;15921;52.034;20.650;2023-04-25T10:31:49;7.68;;;5.50;;
28766;SDS011;15921;52.034;20.650;2023-04-25T10:34:19;6.78;;;5.50;;
28766;SDS011;15921;52.034;20.650;2023-04-25T10:36:51;6.40;;;4.78;;
28766;SDS011;15921;52.034;20.650;2023-04-25T10:39:21;7.50;;;5.57;;
28766;SDS011;15921;52.034;20.650;2023-04-25T10:41:55;6.70;;;5.43;;
28766;SDS011;15921;52.034;20.650;2023-04-25T10:44:22;6.35;;;4.57;;
28766;SDS011;15921;52.034;20.650;2023-04-25T10:46:51;10.00;;;7.30;;
28766;SDS011;15921;52.034;20.650;2023-04-25T10:49:33;8.05;;;6.28;;
28766;SDS011;15921;52.034;20.650;2023-04-25T10:54:45;11.48;;;6.90;;
28766;SDS011;15921;52.034;20.650;2023-04-25T11:00:15;6.78;;;5.45;;
28766;SDS011;15921;52.034;20.650;2023-04-25T11:02:44;5.22;;;4.63;;
28766;SDS011;15921;52.034;20.650;2023-04-25T11:05:20;9.27;;;5.43;;
28766;SDS011;15921;52.034;20.650;2023-04-25T11:07:56;9.10;;;6.20;;
28766;SDS011;15921;52.034;20.650;2023-04-25T11:10:26;9.93;;;5.63;;
28766;SDS011;15921;52.034;20.650;2023-04-25T11:12:53;11.48;;;6.88;;
28766;SDS011;15921;52.034;20.650;2023-04-25T11:15:19;9.30;;;5.97;;
28766;SDS011;15921;52.034;20.650;2023-04-25T11:17:45;8.48;;;5.40;;
28766;SDS011;15921;52.034;20.650;2023-04-25T11:20:11;10.38;;;5.28;;
28766;SDS011;15921;52.034;20.650;2023-04-25T11:22:38;8.30;;;6.10;;
28766;SDS011;15921;52.034;20.650;2023-04-25T11:25:07;10.90;;;5.57;;
28766;SDS011;15921;52.034;20.650;2023-04-25T11:27:34;8.07;;;4.88;;
28766;SDS011;15921;52.034;20.650;2023-04-25T11:30:13;6.03;;;4.75;;
28766;SDS011;15921;52.034;20.650;2023-04-25T11:32:42;9.52;;;5.65;;
28766;SDS011;15921;52.034;20.650;2023-04-25T11:35:09;7.55;;;5.40;;
28766;SDS011;15921;52.034;20.650;2023-04-25T11:37:35;9.23;;;6.32;;
28766;SDS011;15921;52.034;20.650;2023-04-25T11:40:04;7.13;;;5.43;;
28766;SDS011;15921;52.034;20.650;2023-04-25T11:42:36;6.57;;;4.88;;
28766;SDS011;15921;52.034;20.650;2023-04-25T11:45:03;7.78;;;5.50;;
28766;SDS011;15921;52.034;20.650;2023-04-25T11:47:30;7.57;;;5.10;;
28766;SDS011;15921;52.034;20.650;2023-04-25T11:50:00;5.82;;;4.97;;
28766;SDS011;15921;52.034;20.650;2023-04-25T11:52:37;6.53;;;5.13;;
28766;SDS011;15921;52.034;20.650;2023-04-25T11:55:09;6.30;;;4.55;;
28766;SDS011;15921;52.034;20.650;2023-04-25T11:57:38;5.38;;;4.22;;
28766;SDS011;15921;52.034;20.650;2023-04-25T12:00:16;5.45;;;4.28;;
28766;SDS011;15921;52.034;20.650;2023-04-25T12:02:46;6.03;;;4.38;;
28766;SDS011;15921;52.034;20.650;2023-04-25T12:05:15;5.85;;;4.28;;
28766;SDS011;15921;52.034;20.650;2023-04-25T12:07:41;7.35;;;4.85;;
28766;SDS011;15921;52.034;20.650;2023-04-25T12:10:11;6.20;;;4.53;;
28766;SDS011;15921;52.034;20.650;2023-04-25T12:12:41;5.38;;;4.38;;
28766;SDS011;15921;52.034;20.650;2023-04-25T12:15:08;5.38;;;4.13;;
28766;SDS011;15921;52.034;20.650;2023-04-25T12:17:41;5.07;;;4.00;;
28766;SDS011;15921;52.034;20.650;2023-04-25T12:20:10;5.60;;;4.55;;
28766;SDS011;15921;52.034;20.650;2023-04-25T12:22:45;5.82;;;4.65;;
28766;SDS011;15921;52.034;20.650;2023-04-25T12:25:12;7.35;;;4.82;;
28766;SDS011;15921;52.034;20.650;2023-04-25T12:27:39;7.55;;;4.90;;
28766;SDS011;15921;52.034;20.650;2023-04-25T12:30:08;6.35;;;4.60;;
28766;SDS011;15921;52.034;20.650;2023-04-25T12:32:35;9.38;;;6.13;;
28766;SDS011;15921;52.034;20.650;2023-04-25T12:35:02;7.38;;;4.90;;
28766;SDS011;15921;52.034;20.650;2023-04-25T12:37:29;9.02;;;5.15;;
28766;SDS011;15921;52.034;20.650;2023-04-25T12:39:55;7.03;;;5.30;;
28766;SDS011;15921;52.034;20.650;2023-04-25T12:42:21;6.72;;;5.10;;
28766;SDS011;15921;52.034;20.650;2023-04-25T12:44:47;10.15;;;5.53;;
28766;SDS011;15921;52.034;20.650;2023-04-25T12:47:12;6.68;;;4.95;;
28766;SDS011;15921;52.034;20.650;2023-04-25T12:49:39;6.63;;;4.68;;
28766;SDS011;15921;52.034;20.650;2023-04-25T12:52:05;6.70;;;4.80;;
28766;SDS011;15921;52.034;20.650;2023-04-25T12:54:31;8.05;;;6.13;;
28766;SDS011;15921;52.034;20.650;2023-04-25T12:56:57;9.55;;;6.15;;
28766;SDS011;15921;52.034;20.650;2023-04-25T12:59:23;8.38;;;5.32;;
28766;SDS011;15921;52.034;20.650;2023-04-25T13:01:48;8.43;;;5.97;;
28766;SDS011;15921;52.034;20.650;2023-04-25T13:04:14;8.68;;;5.78;;
28766;SDS011;15921;52.034;20.650;2023-04-25T13:06:40;10.48;;;6.22;;
28766;SDS011;15921;52.034;20.650;2023-04-25T13:09:06;8.95;;;5.63;;
28766;SDS011;15921;52.034;20.650;2023-04-25T13:11:32;8.30;;;5.95;;
28766;SDS011;15921;52.034;20.650;2023-04-25T13:13:58;9.80;;;6.38;;
28766;SDS011;15921;52.034;20.650;2023-04-25T13:16:23;12.32;;;5.25;;
28766;SDS011;15921;52.034;20.650;2023-04-25T13:18:49;8.18;;;6.72;;
28766;SDS011;15921;52.034;20.650;2023-04-25T13:21:15;9.93;;;6.20;;
28766;SDS011;15921;52.034;20.650;2023-04-25T13:23:40;8.35;;;6.72;;
28766;SDS011;15921;52.034;20.650;2023-04-25T13:26:07;9.98;;;7.10;;
28766;SDS011;15921;52.034;20.650;2023-04-25T13:28:33;12.50;;;7.60;;
28766;SDS011;15921;52.034;20.650;2023-04-25T13:30:59;11.88;;;7.85;;
28766;SDS011;15921;52.034;20.650;2023-04-25T13:33:25;9.20;;;6.70;;
28766;SDS011;15921;52.034;20.650;2023-04-25T13:35:50;9.13;;;7.07;;
28766;SDS011;15921;52.034;20.650;2023-04-25T13:38:22;10.70;;;6.75;;
28766;SDS011;15921;52.034;20.650;2023-04-25T13:40:49;7.40;;;6.00;;
28766;SDS011;15921;52.034;20.650;2023-04-25T13:43:17;10.18;;;7.05;;
28766;SDS011;15921;52.034;20.650;2023-04-25T13:45:43;11.65;;;6.90;;
28766;SDS011;15921;52.034;20.650;2023-04-25T13:48:09;11.23;;;6.78;;
28766;SDS011;15921;52.034;20.650;2023-04-25T13:50:35;10.93;;;7.40;;
28766;SDS011;15921;52.034;20.650;2023-04-25T13:53:01;12.68;;;7.43;;
28766;SDS011;15921;52.034;20.650;2023-04-25T13:55:26;13.07;;;7.97;;
28766;SDS011;15921;52.034;20.650;2023-04-25T13:57:52;9.07;;;6.53;;
28766;SDS011;15921;52.034;20.650;2023-04-25T14:00:18;10.52;;;7.88;;
28766;SDS011;15921;52.034;20.650;2023-04-25T14:02:45;13.98;;;8.88;;
28766;SDS011;15921;52.034;20.650;2023-04-25T14:05:10;13.18;;;8.52;;
28766;SDS011;15921;52.034;20.650;2023-04-25T14:07:36;14.55;;;8.57;;
28766;SDS011;15921;52.034;20.650;2023-04-25T14:10:02;12.45;;;8.57;;
28766;SDS011;15921;52.034;20.650;2023-04-25T14:12:29;16.73;;;8.80;;
28766;SDS011;15921;52.034;20.650;2023-04-25T14:14:55;10.95;;;7.38;;
28766;SDS011;15921;52.034;20.650;2023-04-25T14:17:21;12.75;;;8.43;;
28766;SDS011;15921;52.034;20.650;2023-04-25T14:19:47;11.93;;;9.13;;
28766;SDS011;15921;52.034;20.650;2023-04-25T14:22:13;13.00;;;9.15;;
28766;SDS011;15921;52.034;20.650;2023-04-25T14:24:40;10.20;;;7.80;;
28766;SDS011;15921;52.034;20.650;2023-04-25T14:27:06;10.70;;;7.35;;
28766;SDS011;15921;52.034;20.650;2023-04-25T14:29:32;12.90;;;7.65;;
28766;SDS011;15921;52.034;20.650;2023-04-25T14:31:58;9.70;;;7.00;;